Time;durP1;ratioP1;P1;durP2;ratioP2;P2;SDS_P1;SDS_P2;PMS_P1;PMS_P2;Temp;Humidity;BMP_temperature;BMP_pressure;BME280_temperature;BME280_humidity;BME280_pressure;Samples;Min_cycle;Max_cycle;Signal;HPM_P1;HPM_P2
2022/04/03 00:00:58;;;;;;;17.90;10.20;;;;;;;-1.73;94.42;97479.66;5026436;28;20045;-65
2022/04/03 00:03:25;;;;;;;18.65;10.00;;;;;;;-1.74;93.97;97476.16;5024941;28;20112;-65
2022/04/03 00:05:51;;;;;;;16.38;9.63;;;;;;;-1.66;95.37;97482.44;5026456;28;20488;-66
2022/04/03 00:08:18;;;;;;;15.10;9.32;;;;;;;-1.68;95.47;97471.16;5026968;28;20049;-65
2022/04/03 00:10:46;;;;;;;18.75;12.07;;;;;;;-1.74;94.42;97481.47;5025207;28;20065;-64
2022/04/03 00:13:12;;;;;;;15.10;10.95;;;;;;;-1.75;94.75;97484.28;5013243;28;20050;-66
2022/04/03 00:15:42;;;;;;;16.65;11.32;;;;;;;-1.67;95.79;97484.25;5019944;28;20056;-66
2022/04/03 00:18:09;;;;;;;14.38;8.80;;;;;;;-1.80;93.65;97498.09;5040266;28;20051;-65
2022/04/03 00:20:37;;;;;;;14.70;8.90;;;;;;;-1.81;94.22;97491.09;5030343;28;20052;-66
2022/04/03 00:23:06;;;;;;;15.10;8.65;;;;;;;-1.80;94.43;97491.94;5027621;28;20045;-65
2022/04/03 00:25:33;;;;;;;17.27;8.85;;;;;;;-1.83;93.54;97487.78;5025973;28;20049;-64
2022/04/03 00:27:59;;;;;;;12.00;7.93;;;;;;;-1.94;94.03;97491.63;5026041;28;20781;-64
2022/04/03 00:30:26;;;;;;;13.98;8.75;;;;;;;-2.17;94.24;97488.84;5026032;28;20076;-65
2022/04/03 00:32:53;;;;;;;15.95;8.77;;;;;;;-2.33;94.36;97492.34;5025499;28;20416;-64
2022/04/03 00:35:20;;;;;;;14.60;8.65;;;;;;;-2.50;94.88;97487.03;5018765;28;20191;-67
2022/04/03 00:37:46;;;;;;;15.93;9.98;;;;;;;-2.71;95.43;97496.31;5024844;28;20049;-64
2022/04/03 00:40:15;;;;;;;17.92;10.27;;;;;;;-2.94;96.31;97491.63;5023201;28;20107;-67
2022/04/03 00:42:41;;;;;;;20.42;11.93;;;;;;;-3.05;96.81;97494.59;5022217;28;20041;-65
2022/04/03 00:45:09;;;;;;;19.50;9.98;;;;;;;-3.06;97.01;97493.75;5025511;28;20034;-65
2022/04/03 00:47:36;;;;;;;17.02;10.55;;;;;;;-3.03;97.13;97493.44;5025464;28;20049;-65
2022/04/03 00:50:03;;;;;;;18.05;10.07;;;;;;;-2.90;97.42;97494.78;5025256;28;20060;-66
2022/04/03 00:52:30;;;;;;;18.02;10.32;;;;;;;-2.86;97.03;97493.47;5024825;28;20057;-65
2022/04/03 00:54:56;;;;;;;18.42;10.93;;;;;;;-2.81;97.35;97496.44;5025548;28;20041;-66
2022/04/03 00:57:26;;;;;;;17.75;10.38;;;;;;;-2.72;97.57;97499.13;5041063;28;20045;-64
2022/04/03 00:59:54;;;;;;;20.65;10.27;;;;;;;-2.60;97.69;97497.81;5026152;28;20220;-65
2022/04/03 01:02:21;;;;;;;16.73;10.23;;;;;;;-2.59;97.65;97496.81;5020677;28;20111;-65
2022/04/03 01:04:48;;;;;;;19.10;10.90;;;;;;;-2.52;97.99;97500.47;5024465;28;20038;-65
2022/04/03 01:07:17;;;;;;;19.83;10.45;;;;;;;-2.46;97.62;97492.84;5024231;28;20088;-67
2022/04/03 01:09:46;;;;;;;20.75;11.82;;;;;;;-2.19;99.46;97498.78;5025346;28;20049;-65
2022/04/03 01:12:12;;;;;;;17.52;10.98;;;;;;;-2.34;97.40;97494.16;5024706;28;20053;-65
2022/04/03 01:14:52;;;;;;;17.58;11.10;;;;;;;-2.41;97.06;97501.13;5025206;28;20599;-65
2022/04/03 01:17:19;;;;;;;17.88;9.40;;;;;;;-2.37;97.11;97494.47;5024849;28;20575;-67
2022/04/03 01:19:45;;;;;;;18.45;11.13;;;;;;;-2.31;97.42;97493.84;5024106;28;20159;-65
2022/04/03 01:22:13;;;;;;;20.67;11.55;;;;;;;-2.33;97.77;97498.47;5026707;28;20049;-64
2022/04/03 01:24:43;;;;;;;18.80;10.27;;;;;;;-2.35;97.59;97493.31;5026140;28;20042;-65
2022/04/03 01:27:10;;;;;;;22.70;10.82;;;;;;;-2.19;99.15;97496.97;5024362;28;20049;-66
2022/04/03 01:29:37;;;;;;;23.60;11.70;;;;;;;-2.25;97.50;97497.66;5023497;28;20051;-67
2022/04/03 01:32:05;;;;;;;19.55;11.45;;;;;;;-2.26;98.03;97502.13;5027142;28;20068;-66
2022/04/03 01:34:31;;;;;;;15.98;9.65;;;;;;;-2.28;97.35;97497.97;5013387;28;20049;-67
2022/04/03 01:36:58;;;;;;;17.85;10.27;;;;;;;-2.19;97.41;97512.88;5023788;28;20412;-65
2022/04/03 01:39:25;;;;;;;19.30;10.75;;;;;;;-1.95;98.14;97508.56;5024550;28;20045;-67
2022/04/03 01:41:52;;;;;;;21.52;11.30;;;;;;;-2.12;95.92;97505.09;5024980;28;20045;-65
2022/04/03 01:44:20;;;;;;;17.65;9.90;;;;;;;-2.14;95.50;97515.06;5030915;28;20041;-65
2022/04/03 01:46:46;;;;;;;16.27;9.32;;;;;;;-2.01;96.78;97510.06;5024932;28;20116;-65
2022/04/03 01:49:13;;;;;;;17.70;10.15;;;;;;;-1.93;95.78;97506.56;5024438;28;20041;-65
2022/04/03 01:51:40;;;;;;;17.45;10.30;;;;;;;-1.97;95.35;97510.53;5024666;28;20072;-65
2022/04/03 01:54:06;;;;;;;17.65;10.10;;;;;;;-1.81;97.15;97509.69;5021438;28;20527;-65
2022/04/03 01:56:34;;;;;;;17.65;10.82;;;;;;;-1.81;95.70;97509.69;5024521;28;20060;-65
2022/04/03 01:59:02;;;;;;;17.83;10.30;;;;;;;-1.93;94.22;97509.22;5024574;28;20053;-64
2022/04/03 02:01:34;;;;;;;17.35;9.85;;;;;;;-1.84;94.39;97504.72;5023540;28;20037;-65
2022/04/03 02:04:02;;;;;;;18.23;9.95;;;;;;;-1.78;95.73;97504.03;5023715;28;20061;-66
2022/04/03 02:06:30;;;;;;;17.00;9.48;;;;;;;-1.83;94.47;97507.19;5023475;28;20136;-68
2022/04/03 02:08:58;;;;;;;14.57;9.18;;;;;;;-1.78;94.78;97505.84;5023488;28;20045;-65
2022/04/03 02:11:25;;;;;;;18.05;9.77;;;;;;;-1.72;95.41;97503.38;5023192;28;20563;-65
2022/04/03 02:13:52;;;;;;;19.17;9.52;;;;;;;-1.93;93.67;97511.88;5023274;28;20050;-67
2022/04/03 02:16:18;;;;;;;18.30;9.30;;;;;;;-1.98;94.03;97509.69;5025202;28;20045;-68
2022/04/03 02:18:45;;;;;;;14.10;8.05;;;;;;;-2.09;93.85;97510.88;5025040;28;20049;-65
2022/04/03 02:21:12;;;;;;;16.15;8.82;;;;;;;-2.05;95.00;97507.91;5024217;28;20499;-65
2022/04/03 02:23:38;;;;;;;18.02;9.80;;;;;;;-2.11;95.65;97507.59;5025634;28;20041;-66
2022/04/03 02:26:05;;;;;;;18.48;9.88;;;;;;;-2.01;96.21;97515.38;5033572;28;20051;-65
2022/04/03 02:28:32;;;;;;;18.52;10.05;;;;;;;-2.07;94.80;97513.38;5043884;28;20047;-65
2022/04/03 02:30:58;;;;;;;17.02;10.05;;;;;;;-2.11;95.14;97510.22;5027414;28;20405;-65
2022/04/03 02:33:25;;;;;;;16.42;9.68;;;;;;;-2.18;94.67;97513.72;5025788;28;20411;-66
2022/04/03 02:35:52;;;;;;;18.08;9.50;;;;;;;-2.19;94.95;97507.59;5027396;28;20041;-65
2022/04/03 02:38:18;;;;;;;18.48;10.13;;;;;;;-2.27;94.69;97512.88;5028512;28;20096;-66
2022/04/03 02:40:46;;;;;;;18.23;9.98;;;;;;;-2.18;95.38;97516.38;5027239;28;20111;-65
2022/04/03 02:43:13;;;;;;;16.10;9.32;;;;;;;-2.28;95.36;97516.53;5026652;28;20450;-65
2022/04/03 02:45:39;;;;;;;18.23;10.00;;;;;;;-2.22;95.57;97516.72;5027544;28;20504;-66
2022/04/03 02:48:06;;;;;;;17.52;10.02;;;;;;;-2.00;96.99;97514.38;5044808;28;20052;-65
2022/04/03 02:50:34;;;;;;;22.42;10.98;;;;;;;-2.04;95.25;97514.84;5032705;28;20133;-66
2022/04/03 02:53:00;;;;;;;17.77;10.07;;;;;;;-2.07;95.06;97520.53;5026509;28;20045;-67
2022/04/03 02:55:27;;;;;;;14.85;9.23;;;;;;;-2.10;94.38;97524.34;5035646;28;20038;-66
2022/04/03 02:57:53;;;;;;;16.30;9.68;;;;;;;-2.09;95.22;97520.69;5027237;28;20072;-66
2022/04/03 03:00:20;;;;;;;17.27;9.65;;;;;;;-2.12;95.94;97524.50;5027491;28;20535;-65
2022/04/03 03:02:48;;;;;;;22.58;10.50;;;;;;;-2.02;96.37;97521.69;5027554;28;20046;-67
2022/04/03 03:05:15;;;;;;;17.52;9.48;;;;;;;-2.16;94.77;97517.03;5027071;28;20048;-67
2022/04/03 03:07:45;;;;;;;17.60;10.15;;;;;;;-2.09;95.66;97523.34;5026613;28;20053;-65
2022/04/03 03:10:23;;;;;;;17.05;10.32;;;;;;;-1.98;94.89;97520.31;5028103;28;20056;-65
2022/04/03 03:12:50;;;;;;;16.52;9.10;;;;;;;-2.10;94.76;97513.72;5025354;28;20049;-67
2022/04/03 03:15:18;;;;;;;14.10;8.75;;;;;;;-2.19;94.97;97514.69;5026713;28;20052;-65
2022/04/03 03:17:46;;;;;;;13.90;8.15;;;;;;;-2.36;94.50;97512.88;5027007;28;20662;-66
2022/04/03 03:20:18;;;;;;;16.50;8.13;;;;;;;-2.33;94.83;97525.00;5026903;28;20053;-65
2022/04/03 03:22:45;;;;;;;16.92;9.15;;;;;;;-2.43;95.66;97526.97;5028939;28;20172;-65
2022/04/03 03:25:12;;;;;;;17.33;9.02;;;;;;;-2.32;95.71;97523.97;5027279;28;20123;-66
2022/04/03 03:27:39;;;;;;;15.55;8.48;;;;;;;-2.20;95.64;97521.00;5026193;28;20520;-66
2022/04/03 03:30:08;;;;;;;16.75;7.70;;;;;;;-2.32;94.64;97528.47;5027087;28;20116;-65
2022/04/03 03:32:36;;;;;;;15.23;8.77;;;;;;;-2.31;94.86;97523.00;5026772;28;20430;-67
2022/04/03 03:35:04;;;;;;;14.82;8.27;;;;;;;-2.25;94.75;97525.00;5025667;28;20045;-67
2022/04/03 03:37:31;;;;;;;16.08;8.70;;;;;;;-2.34;95.00;97526.00;5026908;28;20048;-67
2022/04/03 03:39:58;;;;;;;15.20;8.77;;;;;;;-2.28;95.54;97529.81;5018206;28;20045;-66
2022/04/03 03:42:24;;;;;;;15.10;8.18;;;;;;;-2.26;94.79;97536.59;5025369;28;20057;-65
2022/04/03 03:44:51;;;;;;;14.60;9.15;;;;;;;-2.41;94.83;97536.44;5025587;28;20045;-68
2022/04/03 03:47:17;;;;;;;16.77;9.02;;;;;;;-2.44;95.29;97534.09;5026369;28;20045;-68
2022/04/03 03:49:44;;;;;;;20.98;9.18;;;;;;;-2.44;95.30;97546.56;5030942;28;20037;-67
2022/04/03 03:52:12;;;;;;;16.33;9.68;;;;;;;-2.45;95.09;97542.22;5024610;28;20433;-66
2022/04/03 03:54:39;;;;;;;17.80;9.05;;;;;;;-2.50;95.43;97538.22;5026849;28;20034;-65
2022/04/03 03:57:05;;;;;;;14.80;8.65;;;;;;;-2.53;95.52;97545.69;5025368;28;20471;-66
2022/04/03 03:59:32;;;;;;;20.02;9.75;;;;;;;-2.62;95.35;97543.03;5026038;28;20053;-67
2022/04/03 04:02:00;;;;;;;17.27;9.55;;;;;;;-2.55;96.16;97543.22;5026872;28;20103;-67
2022/04/03 04:04:29;;;;;;;19.23;9.85;;;;;;;-2.56;96.29;97549.50;5025134;28;20041;-68
2022/04/03 04:06:56;;;;;;;16.67;9.40;;;;;;;-2.52;96.61;97542.03;5026644;28;20060;-65
2022/04/03 04:09:23;;;;;;;18.90;10.57;;;;;;;-2.37;98.34;97551.03;5026869;28;20100;-66
2022/04/03 04:11:49;;;;;;;18.08;10.18;;;;;;;-2.53;96.24;97546.53;5024870;28;20041;-65
2022/04/03 04:14:16;;;;;;;17.13;10.05;;;;;;;-2.58;96.34;97550.66;5026311;28;20033;-68
2022/04/03 04:16:43;;;;;;;19.83;11.15;;;;;;;-2.55;97.17;97551.16;5025461;28;20045;-66
2022/04/03 04:19:09;;;;;;;18.60;10.82;;;;;;;-2.53;96.71;97558.97;5025438;28;20053;-65
2022/04/03 04:21:36;;;;;;;20.25;9.98;;;;;;;-2.50;97.21;97564.75;5031379;28;20080;-66
2022/04/03 04:24:03;;;;;;;18.38;9.77;;;;;;;-2.40;97.24;97558.50;5044075;28;20041;-65
2022/04/03 04:26:30;;;;;;;16.98;9.05;;;;;;;-2.41;96.10;97562.13;5028122;28;20041;-68
2022/04/03 04:28:57;;;;;;;20.52;11.07;;;;;;;-2.54;95.87;97565.25;5026728;28;20042;-66
2022/04/03 04:31:23;;;;;;;17.38;9.13;;;;;;;-2.50;97.12;97566.59;5025690;28;20398;-65
2022/04/03 04:33:50;;;;;;;18.52;9.48;;;;;;;-2.50;96.89;97574.53;5025773;28;20052;-64
2022/04/03 04:36:16;;;;;;;17.30;9.80;;;;;;;-2.52;96.25;97566.75;5025982;28;20491;-67
2022/04/03 04:38:43;;;;;;;17.67;10.23;;;;;;;-2.54;96.57;97562.59;5025700;28;20092;-66
2022/04/03 04:41:09;;;;;;;17.42;9.88;;;;;;;-2.48;96.83;97572.53;5025067;28;20045;-65
2022/04/03 04:43:36;;;;;;;14.35;8.35;;;;;;;-2.44;96.67;97576.53;5034009;28;20049;-65
2022/04/03 04:46:03;;;;;;;19.73;9.73;;;;;;;-2.28;96.43;97577.56;5024561;28;20046;-67
2022/04/03 04:48:29;;;;;;;15.50;9.68;;;;;;;-2.43;95.54;97580.03;5045647;28;20044;-66
2022/04/03 04:50:56;;;;;;;18.50;9.48;;;;;;;-2.41;96.38;97581.50;5031229;28;20041;-67
2022/04/03 04:53:26;;;;;;;16.40;9.63;;;;;;;-2.40;96.08;97585.00;5025076;28;20132;-66
2022/04/03 04:55:53;;;;;;;15.23;8.23;;;;;;;-2.43;95.94;97587.97;5020917;28;20048;-66
2022/04/03 04:58:19;;;;;;;16.50;9.27;;;;;;;-2.38;96.63;97591.81;5013599;28;20045;-66
2022/04/03 05:00:47;;;;;;;17.77;10.55;;;;;;;-2.39;95.59;97587.47;5016543;28;20049;-65
2022/04/03 05:03:13;;;;;;;17.42;10.82;;;;;;;-2.30;96.25;97590.97;5019782;28;20069;-67
2022/04/03 05:05:40;;;;;;;22.58;11.75;;;;;;;-2.22;94.79;97591.00;5024118;28;20540;-66
2022/04/03 05:08:07;;;;;;;18.58;9.30;;;;;;;-2.08;94.43;97583.38;5023526;28;20514;-65
2022/04/03 05:10:34;;;;;;;17.75;10.63;;;;;;;-2.02;93.15;97588.03;5024355;28;20061;-67
2022/04/03 05:13:01;;;;;;;16.38;10.02;;;;;;;-1.96;92.63;97595.31;5025171;28;20049;-64
2022/04/03 05:15:30;;;;;;;24.83;10.00;;;;;;;-1.90;92.55;97596.47;5026723;28;20041;-67
2022/04/03 05:17:57;;;;;;;16.98;10.70;;;;;;;-1.91;92.80;97600.13;5036708;28;20045;-66
2022/04/03 05:20:24;;;;;;;17.42;9.90;;;;;;;-1.77;93.75;97606.56;5031502;28;20058;-66
2022/04/03 05:22:51;;;;;;;21.33;12.07;;;;;;;-1.84;91.47;97598.44;5037732;28;20048;-65
2022/04/03 05:25:17;;;;;;;16.73;10.95;;;;;;;-1.81;91.66;97604.44;5025974;28;20088;-67
2022/04/03 05:27:44;;;;;;;16.38;10.95;;;;;;;-1.74;92.24;97610.72;5026928;28;20045;-66
2022/04/03 05:30:12;;;;;;;18.92;14.77;;;;;;;-1.62;93.84;97611.22;5026953;28;20512;-64
2022/04/03 05:32:40;;;;;;;16.98;11.18;;;;;;;-1.71;93.22;97615.69;5032741;28;20049;-61
2022/04/03 05:35:08;;;;;;;16.65;11.13;;;;;;;-1.71;91.56;97613.03;5018421;28;20095;-67
2022/04/03 05:37:40;;;;;;;16.08;9.45;;;;;;;-1.85;90.91;97612.72;5018872;28;20041;-69
2022/04/03 05:40:10;;;;;;;14.55;8.35;;;;;;;-1.78;91.71;97620.00;5039786;28;20049;-67
2022/04/03 05:42:36;;;;;;;15.55;10.10;;;;;;;-1.72;91.19;97606.91;5028260;28;20049;-70
2022/04/03 05:45:05;;;;;;;15.10;9.23;;;;;;;-1.69;90.08;97613.72;5022267;28;20104;-68
2022/04/03 05:47:33;;;;;;;18.23;11.48;;;;;;;-1.68;91.35;97609.22;5031311;28;20072;-69
2022/04/03 05:50:00;;;;;;;16.25;9.90;;;;;;;-1.68;90.10;97617.19;5017800;28;20080;-66
2022/04/03 05:52:26;;;;;;;18.38;9.55;;;;;;;-1.75;90.70;97623.19;5020778;28;20053;-69
2022/04/03 05:54:53;;;;;;;14.73;8.82;;;;;;;-1.59;91.91;97627.63;5024752;28;20041;-68
2022/04/03 05:57:20;;;;;;;18.90;10.30;;;;;;;-1.51;90.60;97626.78;5031124;28;20508;-66
2022/04/03 05:59:46;;;;;;;19.15;9.77;;;;;;;-1.53;89.21;97625.31;5035520;28;20448;-66
2022/04/03 06:02:13;;;;;;;17.08;9.80;;;;;;;-1.42;90.43;97634.75;5033465;28;20045;-67
2022/04/03 06:04:40;;;;;;;13.93;8.95;;;;;;;-1.42;90.13;97635.59;5022554;28;20442;-67
2022/04/03 06:07:07;;;;;;;13.50;9.70;;;;;;;-1.50;89.30;97639.09;5031197;28;20082;-67
2022/04/03 06:09:34;;;;;;;17.80;10.35;;;;;;;-1.42;90.91;97645.38;5041191;28;20045;-66
2022/04/03 06:12:01;;;;;;;17.90;10.02;;;;;;;-1.34;89.73;97648.00;5038524;28;20041;-69
2022/04/03 06:14:27;;;;;;;17.63;10.10;;;;;;;-1.37;89.46;97653.69;5028768;28;20037;-69
2022/04/03 06:16:54;;;;;;;15.43;8.45;;;;;;;-1.32;88.67;97648.69;5030199;28;20091;-66
2022/04/03 06:19:20;;;;;;;14.30;8.18;;;;;;;-1.21;89.11;97653.63;5039345;28;20048;-66
2022/04/03 06:21:47;;;;;;;11.23;7.40;;;;;;;-1.11;87.75;97652.63;5040172;28;20564;-67
2022/04/03 06:24:13;;;;;;;13.10;7.30;;;;;;;-1.09;86.64;97653.28;5032152;28;20069;-68
2022/04/03 06:26:40;;;;;;;12.98;6.65;;;;;;;-1.10;85.62;97660.41;5024337;28;20103;-66
2022/04/03 06:29:07;;;;;;;13.77;6.47;;;;;;;-1.05;86.77;97657.25;5035073;28;20040;-67
2022/04/03 06:31:33;;;;;;;12.77;7.13;;;;;;;-0.98;85.21;97663.56;5030796;28;20107;-66
2022/04/03 06:34:02;;;;;;;13.02;7.32;;;;;;;-0.86;86.31;97665.84;5041901;28;20480;-66
2022/04/03 06:36:28;;;;;;;12.93;6.60;;;;;;;-0.77;85.64;97666.66;5030682;28;20452;-67
2022/04/03 06:38:55;;;;;;;10.15;5.70;;;;;;;-0.79;84.87;97667.66;5033576;28;20045;-68
2022/04/03 06:41:23;;;;;;;10.60;6.47;;;;;;;-0.89;85.97;97671.50;5024313;28;20045;-66
2022/04/03 06:43:49;;;;;;;11.55;6.63;;;;;;;-0.76;86.24;97676.28;5026523;28;20045;-66
2022/04/03 06:46:16;;;;;;;9.73;5.03;;;;;;;-0.76;84.99;97671.78;5024059;28;20053;-70
2022/04/03 06:48:43;;;;;;;8.70;5.78;;;;;;;-0.77;84.49;97678.13;5022200;28;20041;-67
2022/04/03 06:51:09;;;;;;;9.98;5.47;;;;;;;-0.67;84.27;97680.56;5024780;28;20049;-67
2022/04/03 06:53:36;;;;;;;13.75;6.57;;;;;;;-0.59;83.43;97687.69;5032992;28;20060;-66
2022/04/03 06:56:03;;;;;;;9.82;5.50;;;;;;;-0.60;84.32;97684.19;5033313;28;20519;-70
2022/04/03 06:58:29;;;;;;;14.50;8.10;;;;;;;-0.58;83.46;97687.53;5024798;28;20053;-68
2022/04/03 07:00:56;;;;;;;9.55;5.18;;;;;;;-0.53;83.61;97692.31;5029322;28;20079;-69
2022/04/03 07:03:23;;;;;;;11.55;4.88;;;;;;;-0.54;84.06;97688.84;5030290;28;20045;-67
2022/04/03 07:05:49;;;;;;;8.82;5.38;;;;;;;-0.73;84.28;97692.75;5027728;28;20769;-68
2022/04/03 07:08:16;;;;;;;9.15;5.90;;;;;;;-0.67;83.61;97694.69;5024345;28;20045;-66
2022/04/03 07:10:43;;;;;;;6.88;4.07;;;;;;;-0.66;82.47;97688.38;5037199;28;20048;-66
2022/04/03 07:13:10;;;;;;;8.88;5.38;;;;;;;-0.58;82.80;97697.31;5035690;28;20071;-68
2022/04/03 07:15:37;;;;;;;10.02;5.47;;;;;;;-0.45;83.38;97692.28;5028636;28;20091;-68
2022/04/03 07:18:04;;;;;;;7.15;3.78;;;;;;;-0.43;82.25;97695.59;5032774;28;20731;-68
2022/04/03 07:20:31;;;;;;;9.48;5.88;;;;;;;-0.46;82.18;97693.28;5037704;28;20052;-66
2022/04/03 07:22:58;;;;;;;13.32;7.15;;;;;;;-0.45;81.11;97702.91;5033744;28;20562;-67
2022/04/03 07:25:24;;;;;;;8.52;5.05;;;;;;;-0.51;82.29;97700.13;5023548;28;20056;-70
2022/04/03 07:27:51;;;;;;;10.20;6.15;;;;;;;-0.67;81.67;97696.50;5022892;28;20049;-66
2022/04/03 07:30:17;;;;;;;10.18;6.60;;;;;;;-0.60;82.93;97704.63;5024602;28;20406;-69
2022/04/03 07:32:44;;;;;;;9.35;5.03;;;;;;;-0.46;82.63;97708.41;5036029;28;20713;-66
2022/04/03 07:35:11;;;;;;;10.75;5.85;;;;;;;-0.24;80.95;97709.47;5027156;28;20100;-67
2022/04/03 07:37:38;;;;;;;13.05;5.28;;;;;;;-0.33;81.93;97714.00;5035835;28;20144;-67
2022/04/03 07:40:06;;;;;;;8.90;5.40;;;;;;;-0.26;82.50;97714.13;5035962;28;20134;-67
2022/04/03 07:42:34;;;;;;;9.80;6.18;;;;;;;-0.28;82.53;97727.63;5023535;28;20153;-67
2022/04/03 07:45:01;;;;;;;11.55;5.88;;;;;;;-0.18;82.84;97729.25;5024004;28;20037;-68
2022/04/03 07:47:28;;;;;;;9.45;5.63;;;;;;;-0.10;81.50;97733.69;5030861;28;20041;-66
2022/04/03 07:49:55;;;;;;;9.55;5.57;;;;;;;0.12;80.38;97732.09;5030514;28;20103;-66
2022/04/03 07:52:22;;;;;;;10.15;5.15;;;;;;;0.17;78.95;97736.88;5041984;28;20049;-69
2022/04/03 07:54:49;;;;;;;11.25;6.10;;;;;;;0.23;80.75;97737.00;5033199;28;20045;-67
2022/04/03 07:57:19;;;;;;;9.68;5.65;;;;;;;0.28;80.77;97736.47;5022410;28;20049;-66
2022/04/03 07:59:46;;;;;;;9.27;5.25;;;;;;;0.27;80.54;97741.97;5031671;28;20042;-66
2022/04/03 08:02:13;;;;;;;9.82;5.65;;;;;;;0.17;82.34;97744.84;5023814;28;20045;-68
2022/04/03 08:04:39;;;;;;;11.63;5.93;;;;;;;0.13;82.09;97747.06;5044082;28;20535;-69
2022/04/03 08:07:06;;;;;;;9.95;5.53;;;;;;;0.22;80.68;97746.00;5024202;28;20049;-66
2022/04/03 08:09:32;;;;;;;8.65;4.82;;;;;;;0.18;81.97;97746.53;5036914;28;20049;-69
2022/04/03 08:11:59;;;;;;;13.52;6.88;;;;;;;-0.04;81.82;97749.81;5043684;28;20650;-66
2022/04/03 08:14:27;;;;;;;10.30;5.43;;;;;;;0.28;80.67;97747.13;5034361;28;20053;-68
2022/04/03 08:16:55;;;;;;;7.80;5.07;;;;;;;0.43;78.43;97757.84;5016989;28;20504;-68
2022/04/03 08:19:22;;;;;;;8.95;5.13;;;;;;;0.50;78.69;97753.47;5024222;28;20049;-66
2022/04/03 08:21:48;;;;;;;9.02;4.80;;;;;;;0.41;78.50;97757.22;5031577;28;20045;-66
2022/04/03 08:24:15;;;;;;;8.32;5.45;;;;;;;0.70;78.79;97760.97;5037409;28;20068;-68
2022/04/03 08:26:42;;;;;;;7.63;5.25;;;;;;;0.86;78.93;97764.53;5039032;28;20098;-66
2022/04/03 08:29:08;;;;;;;8.65;5.32;;;;;;;0.49;76.77;97766.97;5021610;28;20049;-66
2022/04/03 08:31:35;;;;;;;8.77;5.22;;;;;;;0.47;80.44;97769.81;5028634;28;20049;-69
2022/04/03 08:34:02;;;;;;;8.93;5.45;;;;;;;0.50;81.27;97771.28;5034757;28;20092;-69
2022/04/03 08:36:28;;;;;;;8.85;5.82;;;;;;;0.62;80.65;97764.53;5033597;28;20041;-67
2022/04/03 08:38:56;;;;;;;10.98;5.13;;;;;;;0.63;78.42;97766.19;5032199;28;20049;-66
2022/04/03 08:41:22;;;;;;;10.15;6.30;;;;;;;0.40;82.54;97763.53;5034064;28;20050;-65
2022/04/03 08:43:49;;;;;;;8.57;5.38;;;;;;;0.30;80.46;97769.09;5043884;28;20049;-65
2022/04/03 08:46:16;;;;;;;11.15;5.60;;;;;;;0.45;84.00;97768.34;5027479;28;20528;-68
2022/04/03 08:48:45;;;;;;;11.18;5.35;;;;;;;0.48;83.99;97773.31;5032788;28;20069;-70
2022/04/03 08:51:11;;;;;;;10.52;5.82;;;;;;;0.46;84.70;97785.97;5036012;28;20781;-65
2022/04/03 08:53:39;;;;;;;7.72;5.40;;;;;;;0.67;84.32;97780.00;5036694;28;20061;-67
2022/04/03 08:56:05;;;;;;;9.07;5.30;;;;;;;0.95;81.56;97776.78;5034468;28;20044;-66
2022/04/03 08:58:32;;;;;;;9.63;6.03;;;;;;;1.21;83.39;97774.72;5032344;28;20084;-67
2022/04/03 09:01:00;;;;;;;10.55;5.78;;;;;;;1.78;82.21;97777.78;5022978;28;20045;-67
2022/04/03 09:03:27;;;;;;;8.65;5.40;;;;;;;1.69;79.10;97774.34;5023414;28;20132;-65
2022/04/03 09:06:10;;;;;;;9.55;5.60;;;;;;;1.58;81.25;97770.31;5023048;28;20080;-66
2022/04/03 09:08:37;;;;;;;8.85;5.45;;;;;;;1.45;82.25;97770.97;5029896;28;20054;-65
2022/04/03 09:11:05;;;;;;;9.00;4.97;;;;;;;1.09;83.33;97776.97;5029786;28;20052;-65
2022/04/03 09:13:32;;;;;;;7.82;5.20;;;;;;;1.12;82.50;97774.81;5042277;28;20212;-68
2022/04/03 09:15:59;;;;;;;11.27;5.35;;;;;;;1.12;79.28;97781.97;5030788;28;20045;-68
2022/04/03 09:19:04;;;;;;;6.97;4.90;;;;;;;0.89;82.88;97786.31;5023353;28;20045;-65
2022/04/03 09:21:32;;;;;;;10.07;5.28;;;;;;;1.28;82.53;97783.63;5039030;28;20118;-67
2022/04/03 09:24:12;;;;;;;9.07;5.50;;;;;;;1.40;80.36;97776.03;5035984;28;20526;-67
2022/04/03 09:26:40;;;;;;;7.75;5.50;;;;;;;1.52;80.04;97779.06;5029164;28;20061;-69
2022/04/03 09:29:08;;;;;;;9.13;4.80;;;;;;;1.47;79.56;97786.81;5028138;28;20045;-67
2022/04/03 09:31:35;;;;;;;9.05;5.55;;;;;;;1.20;81.18;97784.56;5030988;28;20091;-66
2022/04/03 09:34:07;;;;;;;11.18;6.22;;;;;;;0.99;85.11;97782.59;5035609;28;20080;-67
2022/04/03 09:36:35;;;;;;;10.55;5.93;;;;;;;1.23;81.62;97789.53;5026388;28;20049;-66
2022/04/03 09:39:12;;;;;;;9.45;4.95;;;;;;;1.22;82.45;97787.03;5021168;28;20037;-69
2022/04/03 09:41:55;;;;;;;8.05;5.00;;;;;;;1.34;84.10;97787.41;5026507;28;20525;-69
2022/04/03 09:44:34;;;;;;;8.30;4.75;;;;;;;1.46;81.89;97793.97;5037532;28;20064;-67
2022/04/03 09:47:10;;;;;;;9.68;5.57;;;;;;;1.43;80.29;97797.84;5031281;28;20045;-66
2022/04/03 09:49:36;;;;;;;9.45;4.80;;;;;;;1.37;78.24;97797.75;5032601;28;20049;-67
2022/04/03 09:52:03;;;;;;;6.65;4.30;;;;;;;1.16;79.79;97793.94;5045186;28;20654;-69
2022/04/03 09:54:30;;;;;;;9.18;4.85;;;;;;;1.04;82.64;97793.53;5031988;28;20424;-66
2022/04/03 09:57:20;;;;;;;12.32;5.28;;;;;;;0.72;80.45;97798.13;5023814;28;20040;-67
2022/04/03 09:59:52;;;;;;;10.90;6.13;;;;;;;0.73;85.09;97797.94;5027583;28;20053;-68
2022/04/03 10:02:18;;;;;;;8.25;4.60;;;;;;;0.62;83.48;97801.84;5030077;28;20041;-66
2022/04/03 10:04:46;;;;;;;9.48;5.30;;;;;;;0.78;83.66;97800.91;5036282;28;20147;-67
2022/04/03 10:07:14;;;;;;;8.95;5.00;;;;;;;0.88;81.97;97806.00;5026967;28;20045;-66
2022/04/03 10:09:49;;;;;;;7.93;4.93;;;;;;;1.00;82.17;97798.38;5028350;28;20620;-66
2022/04/03 10:12:18;;;;;;;9.23;5.38;;;;;;;1.07;82.40;97797.69;5023630;28;20041;-66
2022/04/03 10:14:52;;;;;;;7.85;5.43;;;;;;;1.02;80.86;97790.22;5028482;28;20065;-67
2022/04/03 10:17:20;;;;;;;8.85;5.20;;;;;;;1.24;86.01;97796.53;5029557;28;20041;-66
2022/04/03 10:19:47;;;;;;;12.52;7.63;;;;;;;1.53;85.19;97792.25;5028441;28;20052;-67
2022/04/03 10:22:20;;;;;;;8.75;5.60;;;;;;;1.53;80.95;97791.41;5024193;28;20069;-68
2022/04/03 10:24:51;;;;;;;9.45;5.65;;;;;;;1.78;81.08;97791.97;5014757;28;20041;-69
2022/04/03 10:27:23;;;;;;;8.93;5.32;;;;;;;2.05;77.83;97799.47;5028326;28;20041;-67
2022/04/03 10:29:54;;;;;;;12.75;6.38;;;;;;;1.96;79.20;97804.09;5019178;28;20045;-68
2022/04/03 10:32:27;;;;;;;10.10;6.20;;;;;;;2.35;74.71;97791.41;5027737;28;20501;-68
2022/04/03 10:34:57;;;;;;;9.10;6.00;;;;;;;1.99;82.37;97786.88;5028046;28;20501;-68
2022/04/03 10:37:43;;;;;;;8.65;4.80;;;;;;;1.61;80.46;97796.66;5027521;28;20489;-70
2022/04/03 10:40:16;;;;;;;7.85;4.25;;;;;;;2.19;76.71;97798.63;5027543;28;20057;-66
2022/04/03 10:42:53;;;;;;;6.80;4.30;;;;;;;2.26;78.20;97792.53;5028531;28;20045;-68
2022/04/03 10:45:24;;;;;;;9.82;6.63;;;;;;;2.47;76.16;97783.72;5026220;28;20091;-67
2022/04/03 10:47:52;;;;;;;12.80;5.47;;;;;;;2.88;75.30;97787.63;5025837;28;20038;-69
2022/04/03 10:50:21;;;;;;;6.07;3.80;;;;;;;2.94;73.37;97788.69;5032727;28;20049;-67
2022/04/03 10:52:48;;;;;;;8.77;5.32;;;;;;;2.38;75.42;97788.34;5026508;28;20415;-67
2022/04/03 10:55:20;;;;;;;10.68;5.00;;;;;;;2.30;76.38;97781.28;5028485;28;20107;-69
2022/04/03 10:57:48;;;;;;;6.13;3.40;;;;;;;2.12;75.27;97787.03;5028098;28;20045;-67
2022/04/03 11:00:15;;;;;;;9.45;4.45;;;;;;;2.06;77.16;97779.75;5026402;28;20107;-67
2022/04/03 11:02:49;;;;;;;5.70;3.85;;;;;;;1.78;78.24;97775.94;5027257;28;20050;-69
2022/04/03 11:05:21;;;;;;;10.10;5.07;;;;;;;1.79;77.86;97777.59;5028264;28;20048;-70
2022/04/03 11:07:49;;;;;;;45.13;16.63;;;;;;;1.65;79.27;97775.75;5021840;28;20061;-70
2022/04/03 11:10:35;;;;;;;8.35;4.32;;;;;;;1.75;76.21;97780.81;5031135;28;20048;-66
2022/04/03 11:13:08;;;;;;;8.50;3.70;;;;;;;1.64;71.74;97776.75;5037413;28;20044;-69
2022/04/03 11:16:03;;;;;;;5.72;3.08;;;;;;;1.61;70.53;97777.97;5020608;28;20041;-70
2022/04/03 11:18:33;;;;;;;9.60;3.45;;;;;;;2.00;75.34;97777.84;5027495;28;20049;-68
2022/04/03 11:21:16;;;;;;;9.88;5.40;;;;;;;1.65;72.49;97781.91;5036470;28;20052;-68
2022/04/03 11:23:52;;;;;;;12.10;5.22;;;;;;;1.92;74.67;97779.59;5018348;28;20041;-68
2022/04/03 11:26:21;;;;;;;4.22;2.63;;;;;;;2.21;73.23;97779.72;5026344;28;20524;-68
2022/04/03 11:28:55;;;;;;;13.60;6.75;;;;;;;2.17;72.00;97778.44;5020314;28;20045;-70
2022/04/03 11:31:22;;;;;;;6.75;3.05;;;;;;;2.39;67.92;97775.84;5034110;28;20110;-68
2022/04/03 11:33:49;;;;;;;7.03;3.53;;;;;;;2.46;72.67;97780.22;5023865;28;20099;-69